Malolo — ABC1234 — position and weather

sailwx.info

Track history (hours):
 
Tides and Currents Weather Stations Pressure Air Temp Water Temp Dewpoint Dewpoint Depression Visibility Wind Speed Wind Dir Waves Ship Positions

Malolo

Last reported at 2016-Aug-22 02:32 UTC. Time now 2016-Aug-28 10:25 UTC.
Position N 33°59' W 118°27'.

Length 14 m.

Type: Sailing vessel. MMSI: 338047815.

Date/timePositionNaut miles runAvg speedWind from/ knotsBaromVisibWave heightAir tempDewpointWater temp
2016-Aug-22 02:32N 33°59' W 118°27'0 1.6
2016-Aug-22 02:19N 33°59' W 118°27'17 2.9
2016-Aug-21 20:32N 33°43' W 118°22'3 3.0
2016-Aug-21 19:32N 33°42' W 118°18'3 2.4
2016-Aug-21 18:26N 33°42' W 118°15'4 4.6
2016-Aug-21 17:33N 33°44' W 118°11'2 0.0
2016-Aug-19 23:13N 33°46' W 118°12'2 3.3
2016-Aug-19 22:33N 33°43' W 118°12'6 6.2
2016-Aug-19 21:33N 33°43' W 118°20'5 5.0
2016-Aug-19 20:33N 33°45' W 118°25'18 0.4
2016-Aug-17 21:09N 33°27' W 118°29'1 0.6
2016-Aug-17 20:18N 33°27' W 118°28'0 0.3
2016-Aug-17 19:33N 33°27' W 118°28'1 0.5
2016-Aug-17 16:26N 33°26' W 118°27'33 3.2
2016-Aug-17 06:19N 33°59' W 118°27'0 0.0
2016-Aug-16 22:19N 33°59' W 118°27'0 1.9
2016-Aug-16 22:07N 33°59' W 118°27'36 9.7
2016-Aug-16 18:25N 33°23' W 118°22'2 1.9
2016-Aug-16 17:15N 33°24' W 118°19'4 6.2
2016-Aug-16 16:33N 33°28' W 118°18'6 6.3
2016-Aug-16 15:33N 33°34' W 118°17'5 5.4
2016-Aug-16 14:33N 33°40' W 118°16'2172.0
2016-Aug-16 14:16N 33°59' W 118°27'0 0.0
2016-Aug-16 13:25N 33°59' W 118°27'0 0.0
2016-Aug-15 22:33N 33°59' W 118°27'18666.9
2016-Aug-15 22:32N 33°43' W 118°17'1 1.0
2016-Aug-15 21:33N 33°43' W 118°16'11 5.7
2016-Aug-15 19:33N 33°44' W 118°29'6 5.9
2016-Aug-15 18:32N 33°38' W 118°30'6 6.1
2016-Aug-15 17:28N 33°32' W 118°30'16 7.4
2016-Aug-15 15:21N 33°42' W 118°15'16 0.3
2016-Aug-13 17:09N 33°28' W 118°27'1117.1
2016-Aug-13 16:29N 33°37' W 118°18'13 0.6
2016-Aug-12 19:30N 33°29' W 118°30'1111.4
2016-Aug-12 18:33N 33°38' W 118°22'7432.4
2016-Aug-12 18:32N 33°35' W 118°29'  
Track history (hours):
 
Tides and Currents Weather Stations Pressure Air Temp Water Temp Dewpoint Dewpoint Depression Visibility Wind Speed Wind Dir Waves Ship Positions

Malolo

Last reported at 2016-Aug-22 02:32 UTC. Time now 2016-Aug-28 10:25 UTC.
Position N 33°59' W 118°27'.

Length 14 m.

Type: Sailing vessel. MMSI: 338047815.

Date/timePositionNaut miles runAvg speedWind from/ knotsBaromVisibWave heightAir tempDewpointWater temp
2016-Aug-22 02:32N 33°59' W 118°27'0 1.6
2016-Aug-22 02:19N 33°59' W 118°27'17 2.9
2016-Aug-21 20:32N 33°43' W 118°22'3 3.0
2016-Aug-21 19:32N 33°42' W 118°18'3 2.4
2016-Aug-21 18:26N 33°42' W 118°15'4 4.6
2016-Aug-21 17:33N 33°44' W 118°11'2 0.0
2016-Aug-19 23:13N 33°46' W 118°12'2 3.3
2016-Aug-19 22:33N 33°43' W 118°12'6 6.2
2016-Aug-19 21:33N 33°43' W 118°20'5 5.0
2016-Aug-19 20:33N 33°45' W 118°25'18 0.4
2016-Aug-17 21:09N 33°27' W 118°29'1 0.6
2016-Aug-17 20:18N 33°27' W 118°28'0 0.3
2016-Aug-17 19:33N 33°27' W 118°28'1 0.5
2016-Aug-17 16:26N 33°26' W 118°27'33 3.2
2016-Aug-17 06:19N 33°59' W 118°27'0 0.0
2016-Aug-16 22:19N 33°59' W 118°27'0 1.9
2016-Aug-16 22:07N 33°59' W 118°27'36 9.7
2016-Aug-16 18:25N 33°23' W 118°22'2 1.9
2016-Aug-16 17:15N 33°24' W 118°19'4 6.2
2016-Aug-16 16:33N 33°28' W 118°18'6 6.3
2016-Aug-16 15:33N 33°34' W 118°17'5 5.4
2016-Aug-16 14:33N 33°40' W 118°16'2172.0
2016-Aug-16 14:16N 33°59' W 118°27'0 0.0
2016-Aug-16 13:25N 33°59' W 118°27'0 0.0
2016-Aug-15 22:33N 33°59' W 118°27'18666.9
2016-Aug-15 22:32N 33°43' W 118°17'1 1.0
2016-Aug-15 21:33N 33°43' W 118°16'11 5.7
2016-Aug-15 19:33N 33°44' W 118°29'6 5.9
2016-Aug-15 18:32N 33°38' W 118°30'6 6.1
2016-Aug-15 17:28N 33°32' W 118°30'16 7.4
2016-Aug-15 15:21N 33°42' W 118°15'16 0.3
2016-Aug-13 17:09N 33°28' W 118°27'1117.1
2016-Aug-13 16:29N 33°37' W 118°18'13 0.6
2016-Aug-12 19:30N 33°29' W 118°30'1111.4
2016-Aug-12 18:33N 33°38' W 118°22'7432.4
2016-Aug-12 18:32N 33°35' W 118°29'  

Dump ship's entire track history